sensor_id;sensor_type;location;lat;lon;timestamp;pressure;altitude;pressure_sealevel;temperature;humidity
72336;BME280;65062;48.446;8.834;2023-06-24T00:01:06;98420.78;;;12.64;93.74
72336;BME280;65062;48.446;8.834;2023-06-24T00:04:07;98424.09;;;12.58;96.39
72336;BME280;65062;48.446;8.834;2023-06-24T00:07:07;98422.69;;;12.47;95.94
72336;BME280;65062;48.446;8.834;2023-06-24T00:10:08;98423.53;;;12.48;96.79
72336;BME280;65062;48.446;8.834;2023-06-24T00:13:09;98420.03;;;12.55;96.97
72336;BME280;65062;48.446;8.834;2023-06-24T00:16:10;98424.97;;;12.50;96.91
72336;BME280;65062;48.446;8.834;2023-06-24T00:19:11;98427.53;;;12.36;97.86
72336;BME280;65062;48.446;8.834;2023-06-24T00:22:11;98430.88;;;12.52;96.63
72336;BME280;65062;48.446;8.834;2023-06-24T00:25:11;98432.75;;;12.44;95.47
72336;BME280;65062;48.446;8.834;2023-06-24T00:28:12;98429.06;;;12.30;95.38
72336;BME280;65062;48.446;8.834;2023-06-24T00:31:12;98438.13;;;12.20;96.43
72336;BME280;65062;48.446;8.834;2023-06-24T00:34:13;98434.50;;;12.21;98.13
72336;BME280;65062;48.446;8.834;2023-06-24T00:37:14;98426.97;;;12.18;98.24
72336;BME280;65062;48.446;8.834;2023-06-24T00:40:14;98424.69;;;12.15;98.41
72336;BME280;65062;48.446;8.834;2023-06-24T00:43:16;98432.38;;;12.24;99.58
72336;BME280;65062;48.446;8.834;2023-06-24T00:46:16;98432.22;;;12.18;99.15
72336;BME280;65062;48.446;8.834;2023-06-24T00:49:19;98425.78;;;12.28;97.56
72336;BME280;65062;48.446;8.834;2023-06-24T00:52:19;98432.13;;;12.11;98.09
72336;BME280;65062;48.446;8.834;2023-06-24T00:55:20;98433.00;;;11.96;98.39
72336;BME280;65062;48.446;8.834;2023-06-24T00:58:21;98428.06;;;12.01;98.55
72336;BME280;65062;48.446;8.834;2023-06-24T01:01:21;98433.13;;;12.02;99.08
72336;BME280;65062;48.446;8.834;2023-06-24T01:04:21;98429.19;;;12.06;100.00
72336;BME280;65062;48.446;8.834;2023-06-24T01:07:22;98423.66;;;12.01;100.00
72336;BME280;65062;48.446;8.834;2023-06-24T01:10:23;98427.56;;;12.05;98.90
72336;BME280;65062;48.446;8.834;2023-06-24T01:13:24;98427.41;;;11.99;99.12
72336;BME280;65062;48.446;8.834;2023-06-24T01:20:08;98428.44;;;11.90;98.55
72336;BME280;65062;48.446;8.834;2023-06-24T01:23:24;98422.84;;;11.93;99.40
72336;BME280;65062;48.446;8.834;2023-06-24T01:26:46;98425.28;;;11.94;99.51
72336;BME280;65062;48.446;8.834;2023-06-24T01:33:07;98416.66;;;11.86;99.72
72336;BME280;65062;48.446;8.834;2023-06-24T01:36:11;98424.56;;;11.78;100.00
72336;BME280;65062;48.446;8.834;2023-06-24T01:39:16;98420.13;;;11.78;99.30
72336;BME280;65062;48.446;8.834;2023-06-24T01:42:19;98425.50;;;11.85;99.76
72336;BME280;65062;48.446;8.834;2023-06-24T01:45:34;98422.41;;;11.81;99.05
72336;BME280;65062;48.446;8.834;2023-06-24T01:48:38;98421.63;;;11.73;98.74
72336;BME280;65062;48.446;8.834;2023-06-24T01:51:41;98426.47;;;11.84;98.71
72336;BME280;65062;48.446;8.834;2023-06-24T01:54:44;98426.38;;;11.69;97.92
72336;BME280;65062;48.446;8.834;2023-06-24T01:57:48;98426.41;;;11.61;99.92
72336;BME280;65062;48.446;8.834;2023-06-24T02:00:50;98420.31;;;11.61;100.00
72336;BME280;65062;48.446;8.834;2023-06-24T02:03:53;98413.47;;;11.52;99.68
72336;BME280;65062;48.446;8.834;2023-06-24T02:06:55;98422.16;;;11.52;99.71
72336;BME280;65062;48.446;8.834;2023-06-24T02:09:57;98420.22;;;11.46;99.68
72336;BME280;65062;48.446;8.834;2023-06-24T02:12:58;98422.50;;;11.49;99.59
72336;BME280;65062;48.446;8.834;2023-06-24T02:16:00;98431.34;;;11.40;99.44
72336;BME280;65062;48.446;8.834;2023-06-24T02:19:01;98425.81;;;11.35;99.64
72336;BME280;65062;48.446;8.834;2023-06-24T02:22:02;98427.25;;;11.46;99.28
72336;BME280;65062;48.446;8.834;2023-06-24T02:25:05;98424.81;;;11.36;99.17
72336;BME280;65062;48.446;8.834;2023-06-24T02:28:07;98418.41;;;11.39;100.00
72336;BME280;65062;48.446;8.834;2023-06-24T02:31:09;98423.66;;;11.47;99.68
72336;BME280;65062;48.446;8.834;2023-06-24T02:34:10;98413.06;;;11.32;99.25
72336;BME280;65062;48.446;8.834;2023-06-24T02:37:11;98414.34;;;11.28;100.00
72336;BME280;65062;48.446;8.834;2023-06-24T02:40:11;98409.78;;;11.30;100.00
72336;BME280;65062;48.446;8.834;2023-06-24T02:43:12;98406.97;;;11.32;99.57
72336;BME280;65062;48.446;8.834;2023-06-24T02:46:14;98408.25;;;11.44;99.44
72336;BME280;65062;48.446;8.834;2023-06-24T02:49:16;98412.72;;;11.35;100.00
72336;BME280;65062;48.446;8.834;2023-06-24T02:52:18;98416.50;;;11.25;99.00
72336;BME280;65062;48.446;8.834;2023-06-24T02:55:18;98416.00;;;11.21;99.10
72336;BME280;65062;48.446;8.834;2023-06-24T02:58:19;98414.22;;;11.22;100.00
72336;BME280;65062;48.446;8.834;2023-06-24T03:01:20;98416.16;;;11.28;99.15
72336;BME280;65062;48.446;8.834;2023-06-24T03:04:24;98419.41;;;11.30;99.69
72336;BME280;65062;48.446;8.834;2023-06-24T03:07:25;98424.22;;;11.10;97.23
72336;BME280;65062;48.446;8.834;2023-06-24T03:10:25;98419.50;;;10.90;97.61
72336;BME280;65062;48.446;8.834;2023-06-24T03:13:26;98424.41;;;10.85;97.45
72336;BME280;65062;48.446;8.834;2023-06-24T03:16:26;98429.94;;;10.74;98.71
72336;BME280;65062;48.446;8.834;2023-06-24T03:19:27;98435.53;;;10.63;98.72
72336;BME280;65062;48.446;8.834;2023-06-24T03:22:27;98434.69;;;10.62;99.51
72336;BME280;65062;48.446;8.834;2023-06-24T03:25:28;98446.97;;;10.70;99.19
72336;BME280;65062;48.446;8.834;2023-06-24T03:28:31;98438.78;;;10.56;99.65
72336;BME280;65062;48.446;8.834;2023-06-24T03:31:31;98442.22;;;10.49;100.00
72336;BME280;65062;48.446;8.834;2023-06-24T03:34:32;98442.72;;;10.69;100.00
72336;BME280;65062;48.446;8.834;2023-06-24T03:37:32;98446.66;;;10.65;99.36
72336;BME280;65062;48.446;8.834;2023-06-24T03:40:32;98453.19;;;10.60;99.68
72336;BME280;65062;48.446;8.834;2023-06-24T03:43:33;98457.28;;;10.55;100.00
72336;BME280;65062;48.446;8.834;2023-06-24T03:46:33;98454.50;;;10.56;99.63
72336;BME280;65062;48.446;8.834;2023-06-24T03:49:33;98459.25;;;10.61;100.00
72336;BME280;65062;48.446;8.834;2023-06-24T03:52:34;98456.97;;;10.66;100.00
72336;BME280;65062;48.446;8.834;2023-06-24T03:55:34;98454.19;;;10.68;100.00
72336;BME280;65062;48.446;8.834;2023-06-24T03:58:35;98461.06;;;10.69;99.47
72336;BME280;65062;48.446;8.834;2023-06-24T04:01:35;98464.81;;;10.74;100.00
72336;BME280;65062;48.446;8.834;2023-06-24T04:04:36;98462.69;;;10.70;100.00
72336;BME280;65062;48.446;8.834;2023-06-24T04:07:37;98463.34;;;10.72;100.00
72336;BME280;65062;48.446;8.834;2023-06-24T04:10:38;98466.97;;;10.71;99.75
72336;BME280;65062;48.446;8.834;2023-06-24T04:13:38;98461.38;;;10.66;100.00
72336;BME280;65062;48.446;8.834;2023-06-24T04:16:39;98469.91;;;10.68;100.00
72336;BME280;65062;48.446;8.834;2023-06-24T04:19:40;98468.91;;;10.69;100.00
72336;BME280;65062;48.446;8.834;2023-06-24T04:22:42;98480.53;;;10.74;100.00
72336;BME280;65062;48.446;8.834;2023-06-24T04:25:42;98480.03;;;10.79;100.00
72336;BME280;65062;48.446;8.834;2023-06-24T04:28:43;98479.22;;;10.86;100.00
72336;BME280;65062;48.446;8.834;2023-06-24T04:31:43;98485.13;;;11.04;100.00
72336;BME280;65062;48.446;8.834;2023-06-24T04:34:43;98478.06;;;11.21;100.00
72336;BME280;65062;48.446;8.834;2023-06-24T04:37:44;98484.94;;;11.30;100.00
72336;BME280;65062;48.446;8.834;2023-06-24T04:40:44;98490.66;;;11.41;99.40
72336;BME280;65062;48.446;8.834;2023-06-24T04:43:45;98494.13;;;11.34;97.70
72336;BME280;65062;48.446;8.834;2023-06-24T04:46:46;98497.38;;;11.36;99.39
72336;BME280;65062;48.446;8.834;2023-06-24T04:49:46;98490.00;;;11.39;98.72
72336;BME280;65062;48.446;8.834;2023-06-24T04:52:52;98496.56;;;11.43;98.14
72336;BME280;65062;48.446;8.834;2023-06-24T04:55:53;98490.47;;;11.43;97.83
72336;BME280;65062;48.446;8.834;2023-06-24T04:58:53;98491.31;;;11.43;97.70
72336;BME280;65062;48.446;8.834;2023-06-24T05:01:54;98490.81;;;11.56;97.70
72336;BME280;65062;48.446;8.834;2023-06-24T05:04:54;98490.47;;;11.75;97.21
72336;BME280;65062;48.446;8.834;2023-06-24T05:07:54;98482.22;;;11.86;95.83
72336;BME280;65062;48.446;8.834;2023-06-24T05:10:55;98479.44;;;11.87;96.10
72336;BME280;65062;48.446;8.834;2023-06-24T05:13:56;98486.59;;;12.01;96.18
72336;BME280;65062;48.446;8.834;2023-06-24T05:16:56;98483.31;;;11.99;95.00
72336;BME280;65062;48.446;8.834;2023-06-24T05:19:57;98496.22;;;12.09;96.53
72336;BME280;65062;48.446;8.834;2023-06-24T05:22:57;98493.09;;;12.13;94.58
72336;BME280;65062;48.446;8.834;2023-06-24T05:25:57;98495.38;;;12.16;95.65
72336;BME280;65062;48.446;8.834;2023-06-24T05:28:58;98498.81;;;12.25;94.32
72336;BME280;65062;48.446;8.834;2023-06-24T05:31:58;98497.91;;;12.40;95.75
72336;BME280;65062;48.446;8.834;2023-06-24T05:34:59;98497.66;;;12.50;94.47
72336;BME280;65062;48.446;8.834;2023-06-24T05:38:00;98496.97;;;12.56;94.78
72336;BME280;65062;48.446;8.834;2023-06-24T05:41:00;98500.56;;;12.63;94.85
72336;BME280;65062;48.446;8.834;2023-06-24T05:44:03;98495.75;;;12.66;93.97
72336;BME280;65062;48.446;8.834;2023-06-24T05:47:04;98497.34;;;12.76;93.91
72336;BME280;65062;48.446;8.834;2023-06-24T05:50:05;98494.00;;;12.90;93.87
72336;BME280;65062;48.446;8.834;2023-06-24T05:53:05;98499.16;;;13.06;93.72
72336;BME280;65062;48.446;8.834;2023-06-24T05:56:06;98490.59;;;13.26;93.53
72336;BME280;65062;48.446;8.834;2023-06-24T05:59:06;98485.34;;;13.26;93.28
72336;BME280;65062;48.446;8.834;2023-06-24T06:02:07;98495.06;;;13.40;93.25
72336;BME280;65062;48.446;8.834;2023-06-24T06:05:07;98481.31;;;13.53;93.40
72336;BME280;65062;48.446;8.834;2023-06-24T06:08:08;98496.63;;;13.64;92.82
72336;BME280;65062;48.446;8.834;2023-06-24T06:11:08;98482.69;;;13.78;93.21
72336;BME280;65062;48.446;8.834;2023-06-24T06:14:09;98487.84;;;13.86;92.47
72336;BME280;65062;48.446;8.834;2023-06-24T06:17:09;98491.84;;;13.96;92.58
72336;BME280;65062;48.446;8.834;2023-06-24T06:20:10;98488.66;;;14.15;92.39
72336;BME280;65062;48.446;8.834;2023-06-24T06:23:10;98480.38;;;14.18;89.46
72336;BME280;65062;48.446;8.834;2023-06-24T06:26:10;98481.94;;;14.27;90.59
72336;BME280;65062;48.446;8.834;2023-06-24T06:29:11;98482.66;;;14.36;90.40
72336;BME280;65062;48.446;8.834;2023-06-24T06:32:11;98482.44;;;14.52;90.50
72336;BME280;65062;48.446;8.834;2023-06-24T06:35:12;98485.09;;;14.73;89.41
72336;BME280;65062;48.446;8.834;2023-06-24T06:38:12;98488.59;;;14.80;89.01
72336;BME280;65062;48.446;8.834;2023-06-24T06:41:13;98482.47;;;14.94;88.92
72336;BME280;65062;48.446;8.834;2023-06-24T06:44:13;98475.47;;;15.08;88.76
72336;BME280;65062;48.446;8.834;2023-06-24T06:47:13;98474.59;;;15.22;87.17
72336;BME280;65062;48.446;8.834;2023-06-24T06:50:14;98474.50;;;15.36;87.02
72336;BME280;65062;48.446;8.834;2023-06-24T06:53:14;98474.31;;;15.59;86.80
72336;BME280;65062;48.446;8.834;2023-06-24T06:56:22;98472.75;;;15.71;85.17
72336;BME280;65062;48.446;8.834;2023-06-24T06:59:24;98475.50;;;15.84;85.85
72336;BME280;65062;48.446;8.834;2023-06-24T07:02:24;98464.94;;;15.90;84.94
72336;BME280;65062;48.446;8.834;2023-06-24T07:05:25;98472.97;;;16.10;83.51
72336;BME280;65062;48.446;8.834;2023-06-24T07:08:25;98466.13;;;16.28;83.97
72336;BME280;65062;48.446;8.834;2023-06-24T07:11:25;98471.47;;;16.35;83.25
72336;BME280;65062;48.446;8.834;2023-06-24T07:14:26;98467.66;;;16.44;81.17
72336;BME280;65062;48.446;8.834;2023-06-24T07:17:26;98467.06;;;16.55;79.72
72336;BME280;65062;48.446;8.834;2023-06-24T07:20:26;98463.84;;;16.59;79.47
72336;BME280;65062;48.446;8.834;2023-06-24T07:23:27;98464.47;;;16.75;80.16
72336;BME280;65062;48.446;8.834;2023-06-24T07:26:27;98462.47;;;16.96;80.46
72336;BME280;65062;48.446;8.834;2023-06-24T07:29:28;98456.56;;;17.14;80.54
72336;BME280;65062;48.446;8.834;2023-06-24T07:32:29;98456.59;;;17.33;78.87
72336;BME280;65062;48.446;8.834;2023-06-24T07:35:29;98454.16;;;17.45;78.09
72336;BME280;65062;48.446;8.834;2023-06-24T07:38:29;98464.13;;;17.62;76.99
72336;BME280;65062;48.446;8.834;2023-06-24T07:41:30;98449.41;;;17.86;74.61
72336;BME280;65062;48.446;8.834;2023-06-24T07:44:30;98449.56;;;18.04;73.15
72336;BME280;65062;48.446;8.834;2023-06-24T07:47:30;98449.28;;;18.18;72.50
72336;BME280;65062;48.446;8.834;2023-06-24T07:50:32;98452.91;;;18.30;72.66
72336;BME280;65062;48.446;8.834;2023-06-24T07:53:32;98451.63;;;18.46;70.53
72336;BME280;65062;48.446;8.834;2023-06-24T07:56:33;98452.41;;;18.53;69.02
72336;BME280;65062;48.446;8.834;2023-06-24T07:59:34;98442.66;;;18.85;66.85
72336;BME280;65062;48.446;8.834;2023-06-24T08:02:34;98436.16;;;19.05;62.74
72336;BME280;65062;48.446;8.834;2023-06-24T08:05:34;98440.19;;;19.14;61.71
72336;BME280;65062;48.446;8.834;2023-06-24T08:08:34;98437.47;;;19.21;59.98
72336;BME280;65062;48.446;8.834;2023-06-24T08:11:35;98435.41;;;19.29;59.72
72336;BME280;65062;48.446;8.834;2023-06-24T08:14:36;98435.53;;;19.34;60.49
72336;BME280;65062;48.446;8.834;2023-06-24T08:17:36;98429.19;;;19.60;61.67
72336;BME280;65062;48.446;8.834;2023-06-24T08:20:37;98424.47;;;19.80;58.23
72336;BME280;65062;48.446;8.834;2023-06-24T08:23:37;98432.81;;;20.01;57.54
72336;BME280;65062;48.446;8.834;2023-06-24T08:26:37;98431.66;;;20.15;57.32
72336;BME280;65062;48.446;8.834;2023-06-24T08:29:37;98418.78;;;20.30;56.60
72336;BME280;65062;48.446;8.834;2023-06-24T08:32:38;98421.50;;;20.42;54.17
72336;BME280;65062;48.446;8.834;2023-06-24T08:35:39;98417.28;;;20.64;50.34
72336;BME280;65062;48.446;8.834;2023-06-24T08:38:39;98424.47;;;21.05;51.94
72336;BME280;65062;48.446;8.834;2023-06-24T08:41:39;98421.41;;;21.19;51.13
72336;BME280;65062;48.446;8.834;2023-06-24T08:44:40;98414.78;;;21.10;51.00
72336;BME280;65062;48.446;8.834;2023-06-24T08:47:40;98419.28;;;21.10;51.82
72336;BME280;65062;48.446;8.834;2023-06-24T08:50:44;98413.41;;;21.19;51.71
72336;BME280;65062;48.446;8.834;2023-06-24T08:53:47;98417.91;;;21.53;52.82
72336;BME280;65062;48.446;8.834;2023-06-24T08:56:48;98419.53;;;21.66;51.84
72336;BME280;65062;48.446;8.834;2023-06-24T08:59:49;98414.91;;;21.84;48.50
72336;BME280;65062;48.446;8.834;2023-06-24T09:02:49;98408.06;;;21.88;50.28
72336;BME280;65062;48.446;8.834;2023-06-24T09:05:49;98403.91;;;21.92;48.17
72336;BME280;65062;48.446;8.834;2023-06-24T09:08:56;98402.63;;;21.83;49.03
72336;BME280;65062;48.446;8.834;2023-06-24T09:12:01;98397.03;;;22.36;48.26
72336;BME280;65062;48.446;8.834;2023-06-24T09:15:02;98395.25;;;22.41;47.17
72336;BME280;65062;48.446;8.834;2023-06-24T09:18:04;98403.03;;;22.43;47.64
72336;BME280;65062;48.446;8.834;2023-06-24T09:21:05;98406.03;;;22.75;48.72
72336;BME280;65062;48.446;8.834;2023-06-24T09:24:05;98397.81;;;22.93;46.78
72336;BME280;65062;48.446;8.834;2023-06-24T09:27:06;98392.31;;;22.99;42.62
72336;BME280;65062;48.446;8.834;2023-06-24T09:30:26;98388.75;;;22.94;44.71
72336;BME280;65062;48.446;8.834;2023-06-24T09:33:27;98379.84;;;23.05;43.30
72336;BME280;65062;48.446;8.834;2023-06-24T09:36:27;98381.00;;;23.09;45.72
72336;BME280;65062;48.446;8.834;2023-06-24T09:39:35;98373.22;;;23.24;44.42
72336;BME280;65062;48.446;8.834;2023-06-24T09:42:36;98372.19;;;23.41;43.08
72336;BME280;65062;48.446;8.834;2023-06-24T09:45:36;98374.31;;;23.44;41.05
72336;BME280;65062;48.446;8.834;2023-06-24T09:48:37;98370.38;;;23.47;41.35
72336;BME280;65062;48.446;8.834;2023-06-24T09:51:40;98365.81;;;23.85;41.92
72336;BME280;65062;48.446;8.834;2023-06-24T09:54:44;98367.09;;;23.99;40.09
72336;BME280;65062;48.446;8.834;2023-06-24T09:57:50;98368.38;;;24.18;38.23
72336;BME280;65062;48.446;8.834;2023-06-24T10:00:51;98364.09;;;24.17;38.32
72336;BME280;65062;48.446;8.834;2023-06-24T10:03:53;98362.28;;;24.23;36.70
72336;BME280;65062;48.446;8.834;2023-06-24T10:06:53;98350.63;;;24.07;37.06
72336;BME280;65062;48.446;8.834;2023-06-24T10:09:54;98354.41;;;24.11;36.35
72336;BME280;65062;48.446;8.834;2023-06-24T10:12:55;98350.97;;;24.16;38.85
72336;BME280;65062;48.446;8.834;2023-06-24T10:15:58;98348.66;;;24.24;36.54
72336;BME280;65062;48.446;8.834;2023-06-24T10:19:02;98351.84;;;24.48;38.29
72336;BME280;65062;48.446;8.834;2023-06-24T10:22:07;98348.25;;;24.64;38.01
72336;BME280;65062;48.446;8.834;2023-06-24T10:25:11;98341.47;;;24.56;35.03
72336;BME280;65062;48.446;8.834;2023-06-24T10:28:11;98339.41;;;24.37;35.47
72336;BME280;65062;48.446;8.834;2023-06-24T10:31:11;98333.28;;;24.41;35.35
72336;BME280;65062;48.446;8.834;2023-06-24T10:34:32;98327.84;;;24.58;33.99
72336;BME280;65062;48.446;8.834;2023-06-24T10:37:33;98326.41;;;24.72;35.34
72336;BME280;65062;48.446;8.834;2023-06-24T10:40:43;98316.28;;;24.79;33.53
72336;BME280;65062;48.446;8.834;2023-06-24T10:43:44;98313.16;;;24.92;33.70
72336;BME280;65062;48.446;8.834;2023-06-24T10:46:53;98314.91;;;25.13;33.31
72336;BME280;65062;48.446;8.834;2023-06-24T10:49:54;98303.53;;;24.96;33.98
72336;BME280;65062;48.446;8.834;2023-06-24T10:52:55;98305.84;;;25.19;32.99
72336;BME280;65062;48.446;8.834;2023-06-24T10:55:57;98309.06;;;25.21;31.53
72336;BME280;65062;48.446;8.834;2023-06-24T10:58:58;98300.69;;;25.49;32.66
72336;BME280;65062;48.446;8.834;2023-06-24T11:01:58;98299.59;;;25.45;31.36
72336;BME280;65062;48.446;8.834;2023-06-24T11:05:00;98297.97;;;25.44;31.43
72336;BME280;65062;48.446;8.834;2023-06-24T11:08:00;98299.97;;;25.69;31.47
72336;BME280;65062;48.446;8.834;2023-06-24T11:11:01;98291.63;;;25.19;31.09
72336;BME280;65062;48.446;8.834;2023-06-24T11:14:03;98298.84;;;25.60;33.57
72336;BME280;65062;48.446;8.834;2023-06-24T11:17:03;98287.66;;;25.78;33.83
72336;BME280;65062;48.446;8.834;2023-06-24T11:20:08;98281.97;;;25.64;29.87
72336;BME280;65062;48.446;8.834;2023-06-24T11:23:10;98278.00;;;25.77;31.57
72336;BME280;65062;48.446;8.834;2023-06-24T11:26:10;98281.06;;;26.05;32.85
72336;BME280;65062;48.446;8.834;2023-06-24T11:29:11;98268.22;;;26.37;30.60
72336;BME280;65062;48.446;8.834;2023-06-24T11:32:11;98271.75;;;26.78;29.32
72336;BME280;65062;48.446;8.834;2023-06-24T11:35:13;98269.06;;;26.88;29.53
72336;BME280;65062;48.446;8.834;2023-06-24T11:38:16;98266.66;;;26.67;29.75
72336;BME280;65062;48.446;8.834;2023-06-24T11:41:21;98263.41;;;27.00;31.08
72336;BME280;65062;48.446;8.834;2023-06-24T11:44:24;98262.69;;;27.63;28.44
72336;BME280;65062;48.446;8.834;2023-06-24T11:47:24;98256.91;;;28.38;28.07
72336;BME280;65062;48.446;8.834;2023-06-24T11:50:27;98261.72;;;28.46;25.44
72336;BME280;65062;48.446;8.834;2023-06-24T11:53:40;98243.19;;;29.49;24.92
72336;BME280;65062;48.446;8.834;2023-06-24T11:56:43;98242.09;;;29.92;24.13
72336;BME280;65062;48.446;8.834;2023-06-24T11:59:44;98240.25;;;30.62;24.21
72336;BME280;65062;48.446;8.834;2023-06-24T12:02:44;98234.06;;;31.74;20.89
72336;BME280;65062;48.446;8.834;2023-06-24T12:05:47;98217.44;;;33.52;18.67
72336;BME280;65062;48.446;8.834;2023-06-24T12:08:47;98220.41;;;34.58;17.59
72336;BME280;65062;48.446;8.834;2023-06-24T12:11:47;98214.72;;;33.52;19.10
72336;BME280;65062;48.446;8.834;2023-06-24T12:14:48;98213.72;;;34.22;16.98
72336;BME280;65062;48.446;8.834;2023-06-24T12:17:48;98208.09;;;36.23;16.36
72336;BME280;65062;48.446;8.834;2023-06-24T12:20:49;98201.75;;;36.52;15.79
72336;BME280;65062;48.446;8.834;2023-06-24T12:23:49;98199.34;;;38.15;14.12
72336;BME280;65062;48.446;8.834;2023-06-24T12:26:49;98203.81;;;38.63;13.69
72336;BME280;65062;48.446;8.834;2023-06-24T12:29:50;98195.41;;;37.89;14.16
72336;BME280;65062;48.446;8.834;2023-06-24T12:32:51;98187.00;;;38.21;14.73
72336;BME280;65062;48.446;8.834;2023-06-24T12:35:51;98194.78;;;39.05;15.77
72336;BME280;65062;48.446;8.834;2023-06-24T12:38:52;98191.53;;;38.29;13.59
72336;BME280;65062;48.446;8.834;2023-06-24T12:41:52;98193.09;;;39.01;14.76
72336;BME280;65062;48.446;8.834;2023-06-24T12:44:53;98185.56;;;40.52;12.45
72336;BME280;65062;48.446;8.834;2023-06-24T12:47:53;98187.16;;;41.17;12.26
72336;BME280;65062;48.446;8.834;2023-06-24T12:50:54;98184.41;;;40.94;11.00
72336;BME280;65062;48.446;8.834;2023-06-24T12:53:54;98177.69;;;40.69;12.41
72336;BME280;65062;48.446;8.834;2023-06-24T12:56:54;98169.44;;;39.24;12.67
72336;BME280;65062;48.446;8.834;2023-06-24T12:59:55;98178.00;;;41.09;12.69
72336;BME280;65062;48.446;8.834;2023-06-24T13:02:55;98171.75;;;42.17;12.32
72336;BME280;65062;48.446;8.834;2023-06-24T13:05:56;98157.31;;;41.68;11.13
72336;BME280;65062;48.446;8.834;2023-06-24T13:08:57;98167.84;;;40.27;11.62
72336;BME280;65062;48.446;8.834;2023-06-24T13:11:57;98166.78;;;38.96;12.50
72336;BME280;65062;48.446;8.834;2023-06-24T13:14:58;98175.16;;;35.46;15.17
72336;BME280;65062;48.446;8.834;2023-06-24T13:17:59;98167.88;;;36.00;15.03
72336;BME280;65062;48.446;8.834;2023-06-24T13:20:59;98157.13;;;35.24;15.45
72336;BME280;65062;48.446;8.834;2023-06-24T13:24:00;98170.94;;;36.51;14.79
72336;BME280;65062;48.446;8.834;2023-06-24T13:27:00;98161.63;;;39.26;13.13
72336;BME280;65062;48.446;8.834;2023-06-24T13:30:01;98162.03;;;38.23;13.63
72336;BME280;65062;48.446;8.834;2023-06-24T13:33:02;98145.38;;;39.48;12.59
72336;BME280;65062;48.446;8.834;2023-06-24T13:36:04;98148.44;;;40.80;10.98
72336;BME280;65062;48.446;8.834;2023-06-24T13:39:08;98145.69;;;40.20;12.49
72336;BME280;65062;48.446;8.834;2023-06-24T13:42:11;98141.13;;;40.88;12.04
72336;BME280;65062;48.446;8.834;2023-06-24T13:45:12;98138.25;;;39.63;13.28
72336;BME280;65062;48.446;8.834;2023-06-24T13:48:13;98132.91;;;39.70;12.35
72336;BME280;65062;48.446;8.834;2023-06-24T13:51:14;98137.34;;;38.93;11.89
72336;BME280;65062;48.446;8.834;2023-06-24T13:54:14;98124.66;;;39.16;13.04
72336;BME280;65062;48.446;8.834;2023-06-24T13:57:15;98142.97;;;40.80;12.31
72336;BME280;65062;48.446;8.834;2023-06-24T14:00:16;98141.59;;;40.48;11.25
72336;BME280;65062;48.446;8.834;2023-06-24T14:03:16;98140.63;;;39.65;11.59
72336;BME280;65062;48.446;8.834;2023-06-24T14:06:19;98128.19;;;40.05;11.77
72336;BME280;65062;48.446;8.834;2023-06-24T14:09:19;98125.00;;;40.22;11.58
72336;BME280;65062;48.446;8.834;2023-06-24T14:12:20;98129.38;;;37.75;13.75
72336;BME280;65062;48.446;8.834;2023-06-24T14:15:20;98124.09;;;36.17;15.86
72336;BME280;65062;48.446;8.834;2023-06-24T14:18:21;98119.59;;;38.01;14.46
72336;BME280;65062;48.446;8.834;2023-06-24T14:21:21;98117.31;;;40.50;11.76
72336;BME280;65062;48.446;8.834;2023-06-24T14:24:22;98112.00;;;41.06;11.21
72336;BME280;65062;48.446;8.834;2023-06-24T14:27:22;98112.44;;;38.67;13.32
72336;BME280;65062;48.446;8.834;2023-06-24T14:30:22;98114.06;;;39.84;12.88
72336;BME280;65062;48.446;8.834;2023-06-24T14:33:23;98104.22;;;40.85;11.88
72336;BME280;65062;48.446;8.834;2023-06-24T14:36:23;98102.78;;;42.36;10.96
72336;BME280;65062;48.446;8.834;2023-06-24T14:39:23;98099.06;;;42.58;9.53
72336;BME280;65062;48.446;8.834;2023-06-24T14:42:24;98095.72;;;42.02;10.99
72336;BME280;65062;48.446;8.834;2023-06-24T14:45:24;98093.78;;;42.82;9.42
72336;BME280;65062;48.446;8.834;2023-06-24T14:48:25;98100.03;;;40.27;11.64
72336;BME280;65062;48.446;8.834;2023-06-24T14:51:25;98093.47;;;37.88;13.11
72336;BME280;65062;48.446;8.834;2023-06-24T14:54:26;98086.34;;;39.20;11.93
72336;BME280;65062;48.446;8.834;2023-06-24T14:57:26;98091.38;;;38.99;11.96
72336;BME280;65062;48.446;8.834;2023-06-24T15:00:27;98087.91;;;39.71;12.47
72336;BME280;65062;48.446;8.834;2023-06-24T15:03:27;98076.66;;;39.76;11.77
72336;BME280;65062;48.446;8.834;2023-06-24T15:06:27;98075.91;;;37.89;13.60
72336;BME280;65062;48.446;8.834;2023-06-24T15:09:28;98066.25;;;36.44;13.96
72336;BME280;65062;48.446;8.834;2023-06-24T15:12:28;98077.22;;;36.68;14.70
72336;BME280;65062;48.446;8.834;2023-06-24T15:15:29;98065.94;;;38.83;12.57
72336;BME280;65062;48.446;8.834;2023-06-24T15:18:29;98058.31;;;39.61;12.23
72336;BME280;65062;48.446;8.834;2023-06-24T15:21:29;98064.44;;;40.31;12.39
72336;BME280;65062;48.446;8.834;2023-06-24T15:24:30;98059.81;;;36.60;13.61
72336;BME280;65062;48.446;8.834;2023-06-24T15:27:30;98063.84;;;35.98;14.84
72336;BME280;65062;48.446;8.834;2023-06-24T15:30:30;98067.16;;;35.50;14.97
72336;BME280;65062;48.446;8.834;2023-06-24T15:33:31;98050.19;;;36.99;14.83
72336;BME280;65062;48.446;8.834;2023-06-24T15:36:31;98049.84;;;38.81;13.02
72336;BME280;65062;48.446;8.834;2023-06-24T15:39:32;98049.91;;;39.70;11.73
72336;BME280;65062;48.446;8.834;2023-06-24T15:42:32;98058.13;;;39.35;12.75
72336;BME280;65062;48.446;8.834;2023-06-24T15:45:32;98041.66;;;39.16;12.70
72336;BME280;65062;48.446;8.834;2023-06-24T15:48:33;98050.53;;;39.28;12.62
72336;BME280;65062;48.446;8.834;2023-06-24T15:51:33;98043.56;;;38.96;12.68
72336;BME280;65062;48.446;8.834;2023-06-24T15:54:33;98039.97;;;38.61;13.54
72336;BME280;65062;48.446;8.834;2023-06-24T15:57:34;98040.03;;;38.34;13.66
72336;BME280;65062;48.446;8.834;2023-06-24T16:00:34;98027.28;;;37.55;13.85
72336;BME280;65062;48.446;8.834;2023-06-24T16:03:34;98025.41;;;36.23;15.31
72336;BME280;65062;48.446;8.834;2023-06-24T16:06:35;98024.91;;;36.30;15.36